Time;durP1;ratioP1;P1;durP2;ratioP2;P2;SDS_P1;SDS_P2;PMS_P1;PMS_P2;Temp;Humidity;BMP_temperature;BMP_pressure;BME280_temperature;BME280_humidity;BME280_pressure;Samples;Min_cycle;Max_cycle;Signal;HPM_P1;HPM_P2
2023/07/15 00:01:31;;;;;;;9.38;3.50;;;;;;;21.18;56.77;100237.16;5034995;28;20029;-77
2023/07/15 00:03:57;;;;;;;15.00;4.03;;;;;;;21.17;55.58;100230.00;5054674;28;20029;-77
2023/07/15 00:06:24;;;;;;;13.23;4.50;;;;;;;21.17;55.79;100235.44;5055822;28;20404;-77
2023/07/15 00:08:50;;;;;;;10.88;4.10;;;;;;;21.14;56.06;100228.47;5057181;28;20017;-77
2023/07/15 00:11:19;;;;;;;12.43;3.90;;;;;;;21.12;56.89;100225.13;5055952;28;20033;-77
2023/07/15 00:13:44;;;;;;;9.30;3.80;;;;;;;21.10;56.57;100232.69;5057082;28;20376;-77
2023/07/15 00:16:10;;;;;;;10.65;4.10;;;;;;;21.09;55.73;100225.50;5052898;28;20088;-77
2023/07/15 00:18:35;;;;;;;12.57;4.20;;;;;;;21.06;55.96;100228.66;5062161;28;20032;-77
2023/07/15 00:21:10;;;;;;;11.63;4.00;;;;;;;21.04;55.39;100228.84;5064305;28;20484;-77
2023/07/15 00:23:36;;;;;;;12.57;4.38;;;;;;;21.01;57.53;100233.84;5060943;28;20115;-77
2023/07/15 00:26:02;;;;;;;12.48;4.03;;;;;;;20.98;57.34;100223.31;5060866;28;20150;-77
2023/07/15 00:28:28;;;;;;;12.30;4.18;;;;;;;20.96;56.80;100226.22;5053706;28;20067;-77
2023/07/15 00:30:57;;;;;;;15.10;4.35;;;;;;;20.92;56.66;100225.78;5050786;28;20052;-77
2023/07/15 00:33:24;;;;;;;10.27;4.00;;;;;;;20.92;56.42;100222.19;5058654;28;20058;-77
2023/07/15 00:35:50;;;;;;;12.02;4.15;;;;;;;20.93;56.55;100237.56;5061983;28;20119;-77
2023/07/15 00:38:16;;;;;;;9.05;3.85;;;;;;;20.93;56.55;100229.38;5048729;28;20107;-77
2023/07/15 00:40:44;;;;;;;7.93;3.70;;;;;;;20.92;57.33;100236.72;5053429;28;20529;-77
2023/07/15 00:43:47;;;;;;;11.40;3.95;;;;;;;20.94;56.92;100229.16;5051361;28;20476;-77
2023/07/15 00:46:19;;;;;;;10.63;3.60;;;;;;;20.92;57.86;100234.00;5046647;28;20033;-77
2023/07/15 00:49:05;;;;;;;14.60;3.92;;;;;;;20.94;56.19;100229.16;5062210;28;20035;-77
2023/07/15 00:51:35;;;;;;;16.02;4.28;;;;;;;20.93;56.23;100243.03;5051124;28;20179;-77
2023/07/15 00:54:02;;;;;;;8.48;3.58;;;;;;;20.91;58.39;100239.66;5043307;28;20473;-77
2023/07/15 00:56:31;;;;;;;10.98;3.83;;;;;;;20.90;56.23;100237.94;5060764;28;20165;-77
2023/07/15 00:58:57;;;;;;;12.07;3.92;;;;;;;20.88;55.23;100240.88;5057667;28;20037;-78
2023/07/15 01:01:23;;;;;;;10.70;3.72;;;;;;;20.86;55.70;100239.38;5045758;28;20086;-77
2023/07/15 01:03:48;;;;;;;12.82;4.57;;;;;;;20.85;55.78;100244.00;5052621;28;20037;-77
2023/07/15 01:06:14;;;;;;;11.07;4.03;;;;;;;20.82;56.20;100241.66;5053363;28;20042;-77
2023/07/15 01:08:40;;;;;;;13.35;4.15;;;;;;;20.76;56.69;100247.88;5061869;28;20035;-77
2023/07/15 01:11:06;;;;;;;10.40;3.60;;;;;;;20.71;56.99;100247.63;5054974;28;20044;-77
2023/07/15 01:13:34;;;;;;;16.85;4.43;;;;;;;20.66;56.58;100241.88;5058768;28;20017;-77
2023/07/15 01:16:00;;;;;;;12.98;4.45;;;;;;;20.63;57.16;100248.59;5061054;28;20029;-77
2023/07/15 01:18:25;;;;;;;9.85;3.70;;;;;;;20.60;57.78;100251.66;5059507;28;20020;-77
2023/07/15 01:20:50;;;;;;;10.90;4.40;;;;;;;20.54;57.61;100250.59;5055924;28;20032;-77
2023/07/15 01:23:17;;;;;;;7.80;3.42;;;;;;;20.53;57.35;100243.41;5054818;28;20040;-77
2023/07/15 01:25:42;;;;;;;8.57;3.92;;;;;;;20.46;59.31;100241.66;5052207;28;20037;-77
2023/07/15 01:28:07;;;;;;;9.63;3.80;;;;;;;20.40;60.09;100238.66;5060023;28;20461;-77
2023/07/15 01:30:33;;;;;;;11.00;3.95;;;;;;;20.38;57.91;100248.06;5048405;28;20028;-77
2023/07/15 01:32:58;;;;;;;11.05;4.28;;;;;;;20.34;60.75;100241.31;5045684;28;20032;-77
2023/07/15 01:35:24;;;;;;;8.93;3.53;;;;;;;20.29;62.96;100246.50;5050970;28;20096;-77
2023/07/15 01:37:49;;;;;;;15.95;4.20;;;;;;;20.22;62.20;100243.66;5051466;28;20020;-77
2023/07/15 01:40:14;;;;;;;13.15;4.15;;;;;;;20.18;59.92;100243.22;5055594;28;20028;-77
2023/07/15 01:42:40;;;;;;;12.63;3.83;;;;;;;20.14;61.98;100249.25;5054078;28;20029;-77
2023/07/15 01:45:09;;;;;;;8.80;3.47;;;;;;;20.11;59.09;100255.91;5055843;28;20100;-77
2023/07/15 01:47:35;;;;;;;;;;;;;;;20.18;60.29;100256.03;5042441;28;20124;-77
2023/07/15 01:50:00;;;;;;;11.02;3.78;;;;;;;20.07;60.17;100255.47;5054588;28;20071;-77
2023/07/15 01:52:25;;;;;;;9.40;3.78;;;;;;;20.04;60.55;100254.97;5056644;28;20357;-77
2023/07/15 01:54:51;;;;;;;12.93;3.92;;;;;;;20.01;60.23;100258.09;5039094;28;20524;-77
2023/07/15 01:57:16;;;;;;;11.23;4.10;;;;;;;19.94;62.93;100260.72;5047637;28;20915;-77
2023/07/15 01:59:42;;;;;;;9.10;3.55;;;;;;;19.89;64.37;100266.75;5061712;28;20502;-77
2023/07/15 02:02:07;;;;;;;10.90;3.78;;;;;;;19.84;62.52;100265.59;5044573;28;20032;-77
2023/07/15 02:04:32;;;;;;;8.68;3.45;;;;;;;19.77;63.86;100265.50;5064407;28;20094;-77
2023/07/15 02:06:58;;;;;;;13.15;3.55;;;;;;;19.72;63.24;100265.19;5047885;28;20024;-77
2023/07/15 02:09:23;;;;;;;10.82;3.63;;;;;;;19.69;63.64;100260.97;5057797;28;20104;-77
2023/07/15 02:11:49;;;;;;;10.50;3.63;;;;;;;19.65;62.19;100251.47;5058289;28;20107;-77
2023/07/15 02:14:14;;;;;;;11.48;3.88;;;;;;;19.60;64.21;100263.97;5048264;28;20049;-77
2023/07/15 02:16:40;;;;;;;10.00;3.63;;;;;;;19.56;64.43;100267.06;5057573;28;20440;-77
2023/07/15 02:19:06;;;;;;;11.80;3.80;;;;;;;19.51;65.14;100277.66;5060633;28;20162;-77
2023/07/15 02:21:31;;;;;;;10.02;3.78;;;;;;;19.48;65.20;100278.03;5052699;28;20101;-77
2023/07/15 02:23:59;;;;;;;13.25;3.70;;;;;;;19.46;63.18;100269.22;5053489;28;20798;-77
2023/07/15 02:26:27;;;;;;;15.00;4.00;;;;;;;19.46;63.33;100271.06;5053504;28;20064;-77
2023/07/15 02:28:53;;;;;;;11.85;4.00;;;;;;;19.44;64.93;100270.44;5062150;28;20028;-77
2023/07/15 02:31:18;;;;;;;11.30;3.92;;;;;;;19.41;64.49;100279.81;5053472;28;20025;-77
2023/07/15 02:33:44;;;;;;;10.35;3.67;;;;;;;19.38;64.85;100277.47;5055336;28;20020;-77
2023/07/15 02:36:09;;;;;;;11.43;3.88;;;;;;;19.34;65.89;100273.41;5058767;28;20102;-77
2023/07/15 02:38:35;;;;;;;10.35;3.72;;;;;;;19.29;67.46;100273.13;5057232;28;20028;-77
2023/07/15 02:41:00;;;;;;;13.98;4.32;;;;;;;19.21;67.52;100276.78;5058863;28;20028;-77
2023/07/15 02:43:25;;;;;;;15.95;4.05;;;;;;;19.11;67.34;100265.28;5047439;28;20025;-77
2023/07/15 02:45:51;;;;;;;9.82;3.40;;;;;;;18.99;68.38;100271.16;5054156;28;20052;-77
2023/07/15 02:48:17;;;;;;;9.18;3.70;;;;;;;18.89;69.77;100266.97;5056400;28;20432;-77
2023/07/15 02:50:42;;;;;;;10.18;3.72;;;;;;;18.79;70.31;100268.03;5050054;28;20036;-77
2023/07/15 02:53:07;;;;;;;11.27;3.72;;;;;;;18.70;70.26;100258.22;5045110;28;20079;-77
2023/07/15 02:55:33;;;;;;;12.00;3.72;;;;;;;18.60;70.53;100263.88;5036735;28;20361;-77
2023/07/15 02:57:58;;;;;;;12.52;3.58;;;;;;;18.54;70.22;100266.47;5052653;28;20162;-77
2023/07/15 03:00:24;;;;;;;9.88;3.70;;;;;;;18.45;70.15;100261.09;5053406;28;20121;-77
2023/07/15 03:02:52;;;;;;;11.75;3.97;;;;;;;18.39;70.82;100261.81;5056908;28;20028;-77
2023/07/15 03:05:18;;;;;;;10.40;4.20;;;;;;;18.34;71.40;100262.31;5056062;28;20032;-76
2023/07/15 03:07:44;;;;;;;8.88;3.70;;;;;;;18.29;72.31;100259.31;5038737;28;20124;-77
2023/07/15 03:10:12;;;;;;;10.63;4.00;;;;;;;18.26;71.55;100261.50;5048628;28;20123;-77
2023/07/15 03:12:38;;;;;;;15.15;3.97;;;;;;;18.22;72.39;100260.19;5057836;28;20033;-77
2023/07/15 03:15:04;;;;;;;11.68;3.70;;;;;;;18.15;72.40;100263.59;5054694;28;20543;-77
2023/07/15 03:17:35;;;;;;;11.18;3.92;;;;;;;18.14;72.38;100263.78;5054092;28;20123;-77
2023/07/15 03:20:14;;;;;;;10.05;3.88;;;;;;;18.09;72.13;100263.47;5056104;28;20074;-77
2023/07/15 03:22:41;;;;;;;10.35;3.70;;;;;;;18.06;74.36;100270.09;5039586;28;20032;-77
2023/07/15 03:25:09;;;;;;;10.50;3.63;;;;;;;17.99;72.52;100269.97;5051585;28;20082;-77
2023/07/15 03:27:34;;;;;;;10.13;3.77;;;;;;;18.00;72.42;100270.81;5058519;28;20036;-77
2023/07/15 03:30:00;;;;;;;11.68;4.13;;;;;;;17.98;72.99;100265.56;5055094;28;20025;-77
2023/07/15 03:32:25;;;;;;;11.50;4.28;;;;;;;17.97;72.77;100265.72;5039986;28;20091;-77
2023/07/15 03:34:50;;;;;;;9.63;4.00;;;;;;;17.94;73.20;100266.09;5052792;28;20618;-77
2023/07/15 03:37:16;;;;;;;12.32;4.15;;;;;;;17.90;75.16;100268.28;5058522;28;20043;-77
2023/07/15 03:39:41;;;;;;;11.25;4.10;;;;;;;17.82;74.81;100266.41;5056283;28;20024;-77
2023/07/15 03:42:07;;;;;;;13.13;4.70;;;;;;;17.78;74.29;100264.22;5056225;28;20029;-77
2023/07/15 03:44:32;;;;;;;13.25;4.30;;;;;;;17.71;75.27;100263.22;5043301;28;20137;-77
2023/07/15 03:46:58;;;;;;;11.70;3.90;;;;;;;17.67;74.90;100260.00;5067828;28;20447;-77
2023/07/15 03:49:24;;;;;;;11.20;3.92;;;;;;;17.65;75.74;100262.03;5062225;28;20033;-77
2023/07/15 03:51:49;;;;;;;10.90;3.80;;;;;;;17.61;75.94;100258.84;5046915;28;20048;-77
2023/07/15 03:54:14;;;;;;;10.30;4.00;;;;;;;17.61;77.47;100258.84;5042244;28;20025;-77
2023/07/15 03:56:40;;;;;;;13.90;3.97;;;;;;;17.59;75.75;100254.59;5058846;28;20032;-77
2023/07/15 03:59:05;;;;;;;13.50;4.97;;;;;;;17.59;75.10;100257.31;5055607;28;20033;-77
2023/07/15 04:01:31;;;;;;;19.25;4.55;;;;;;;17.56;75.99;100255.78;5054759;28;20546;-77
2023/07/15 04:03:56;;;;;;;9.73;3.83;;;;;;;17.58;74.71;100247.44;5062500;28;20039;-77
2023/07/15 04:06:22;;;;;;;11.38;4.18;;;;;;;17.59;76.08;100249.16;5053819;28;20025;-77
2023/07/15 04:08:49;;;;;;;12.48;4.40;;;;;;;17.57;74.95;100256.63;5059226;28;20031;-77
2023/07/15 04:11:16;;;;;;;13.52;4.00;;;;;;;17.56;75.71;100257.66;5062836;28;20025;-77
2023/07/15 04:13:41;;;;;;;12.63;3.85;;;;;;;17.57;78.66;100251.19;5058544;28;20039;-77
2023/07/15 04:16:06;;;;;;;12.68;3.92;;;;;;;17.57;77.80;100257.47;5053286;28;20025;-77
2023/07/15 04:18:32;;;;;;;12.02;4.15;;;;;;;17.57;76.90;100254.75;5045964;28;20037;-77
2023/07/15 04:20:57;;;;;;;13.43;4.50;;;;;;;17.60;75.87;100250.84;5055605;28;20364;-77
2023/07/15 04:23:22;;;;;;;15.38;4.65;;;;;;;17.61;75.94;100257.97;5046026;28;20457;-77
2023/07/15 04:25:48;;;;;;;14.63;4.38;;;;;;;17.65;75.87;100253.88;5041364;28;20033;-75
2023/07/15 04:28:14;;;;;;;11.85;4.50;;;;;;;17.70;76.40;100259.66;5045899;28;20040;-76
2023/07/15 04:30:39;;;;;;;9.63;4.00;;;;;;;17.75;76.54;100259.16;5042709;28;20024;-76
2023/07/15 04:33:05;;;;;;;9.60;3.40;;;;;;;17.80;77.46;100268.47;5065914;28;20147;-76
2023/07/15 04:35:30;;;;;;;11.32;3.60;;;;;;;17.84;76.55;100268.13;5046520;28;20508;-76
2023/07/15 04:37:56;;;;;;;11.63;3.85;;;;;;;17.87;74.05;100276.75;5048580;28;20024;-76
2023/07/15 04:40:21;;;;;;;11.75;3.88;;;;;;;17.93;76.65;100264.38;5049091;28;20116;-76
2023/07/15 04:42:46;;;;;;;13.07;4.30;;;;;;;17.96;75.59;100269.47;5043846;28;20039;-75
2023/07/15 04:45:12;;;;;;;9.45;4.05;;;;;;;17.99;77.15;100277.25;5064454;28;20485;-75
2023/07/15 04:47:39;;;;;;;11.60;4.40;;;;;;;18.02;75.57;100282.34;5061908;28;20089;-75
2023/07/15 04:50:05;;;;;;;12.32;4.32;;;;;;;18.06;74.77;100286.41;5045297;28;20025;-76
2023/07/15 04:52:30;;;;;;;14.88;4.50;;;;;;;18.12;73.63;100279.44;5038081;28;20028;-75
2023/07/15 04:54:55;;;;;;;11.38;4.22;;;;;;;18.15;74.61;100287.25;5052674;28;20035;-75
2023/07/15 04:57:21;;;;;;;12.73;4.13;;;;;;;18.21;74.64;100280.25;5043166;28;20056;-76
2023/07/15 04:59:47;;;;;;;13.57;3.83;;;;;;;18.24;75.13;100275.28;5055111;28;20111;-76
2023/07/15 05:02:12;;;;;;;8.35;3.55;;;;;;;18.27;75.00;100284.97;5045419;28;20436;-76
2023/07/15 05:04:38;;;;;;;12.57;4.30;;;;;;;18.31;75.14;100276.28;5052607;28;20071;-78
2023/07/15 05:07:04;;;;;;;13.73;4.13;;;;;;;18.34;76.16;100275.09;5047784;28;20109;-83
2023/07/15 05:09:31;;;;;;;10.82;3.78;;;;;;;18.36;76.92;100281.22;5044833;28;20032;-83
2023/07/15 05:11:57;;;;;;;11.77;3.63;;;;;;;18.40;76.65;100278.97;5045134;28;20120;-84
2023/07/15 05:14:22;;;;;;;10.35;4.30;;;;;;;18.44;74.70;100286.59;5045333;28;20031;-83
2023/07/15 05:16:47;;;;;;;8.98;3.60;;;;;;;18.48;75.92;100287.09;5043551;28;20040;-83
2023/07/15 05:19:13;;;;;;;11.10;3.78;;;;;;;18.52;74.46;100289.28;5043462;28;20118;-84
2023/07/15 05:21:38;;;;;;;7.97;3.50;;;;;;;18.59;75.55;100281.25;5038495;28;20041;-83
2023/07/15 05:24:04;;;;;;;9.13;3.67;;;;;;;18.64;74.58;100281.56;5042463;28;20137;-84
2023/07/15 05:26:30;;;;;;;15.57;3.88;;;;;;;18.69;74.44;100272.84;5041322;28;20052;-83
2023/07/15 05:28:56;;;;;;;12.40;3.72;;;;;;;18.74;74.39;100277.75;5043066;28;20017;-83
2023/07/15 05:31:21;;;;;;;10.80;3.45;;;;;;;18.80;76.29;100290.63;5050354;28;20075;-84
2023/07/15 05:33:46;;;;;;;11.23;3.90;;;;;;;18.85;76.30;100286.34;5046673;28;20041;-83
2023/07/15 05:36:13;;;;;;;15.68;4.40;;;;;;;18.89;76.50;100283.28;5055226;28;20384;-83
2023/07/15 05:38:43;;;;;;;8.93;3.10;;;;;;;18.94;75.12;100286.34;5043139;28;20426;-83
2023/07/15 05:41:11;;;;;;;15.18;4.05;;;;;;;19.01;75.72;100292.75;5052280;28;20087;-83
2023/07/15 05:43:36;;;;;;;17.23;4.28;;;;;;;19.06;76.54;100286.75;5057354;28;20033;-82
2023/07/15 05:46:01;;;;;;;12.30;4.00;;;;;;;19.12;74.37;100286.88;5048714;28;20101;-84
2023/07/15 05:48:26;;;;;;;14.82;3.75;;;;;;;19.19;73.89;100300.63;5046073;28;20116;-83
2023/07/15 05:50:52;;;;;;;12.52;4.20;;;;;;;19.24;75.74;100292.75;5042163;28;20121;-83
2023/07/15 05:53:17;;;;;;;11.10;4.15;;;;;;;19.29;75.09;100305.81;5044334;28;20040;-83
2023/07/15 05:55:43;;;;;;;14.23;3.53;;;;;;;19.33;74.67;100302.53;5041055;28;20025;-83
2023/07/15 05:58:11;;;;;;;12.10;3.67;;;;;;;19.41;73.86;100304.34;5034788;28;20563;-82
2023/07/15 06:00:38;;;;;;;16.10;4.57;;;;;;;19.45;74.47;100302.13;5046375;28;20408;-83
2023/07/15 06:03:03;;;;;;;12.75;3.97;;;;;;;19.51;73.36;100299.47;5057233;28;20032;-82
2023/07/15 06:05:29;;;;;;;11.95;3.70;;;;;;;19.56;74.33;100290.75;5052091;28;20357;-83
2023/07/15 06:07:54;;;;;;;13.48;3.97;;;;;;;19.63;72.27;100304.50;5054826;28;20137;-83
2023/07/15 06:10:20;;;;;;;10.25;3.88;;;;;;;19.67;73.04;100297.63;5057714;28;20369;-84
2023/07/15 06:12:45;;;;;;;8.75;3.38;;;;;;;19.74;74.05;100304.03;5059421;28;20354;-80
2023/07/15 06:15:10;;;;;;;16.27;3.95;;;;;;;19.82;75.03;100314.88;5063958;28;20020;-81
2023/07/15 06:17:36;;;;;;;11.77;3.50;;;;;;;19.88;74.87;100313.28;5041497;28;20041;-80
2023/07/15 06:20:01;;;;;;;12.52;3.67;;;;;;;19.92;75.09;100302.88;5059660;28;20050;-83
2023/07/15 06:22:26;;;;;;;11.27;3.60;;;;;;;19.97;75.80;100300.41;5049509;28;20441;-80
2023/07/15 06:24:52;;;;;;;12.32;4.00;;;;;;;20.01;76.07;100304.47;5060007;28;20578;-82
2023/07/15 06:27:18;;;;;;;10.27;3.10;;;;;;;20.04;76.76;100298.63;5055156;28;20035;-81
2023/07/15 06:29:44;;;;;;;9.65;3.40;;;;;;;20.07;76.82;100299.13;5048414;28;20120;-81
2023/07/15 06:32:09;;;;;;;7.05;2.90;;;;;;;20.08;77.44;100299.94;5057891;28;20025;-82
2023/07/15 06:34:34;;;;;;;13.20;3.80;;;;;;;20.14;76.99;100309.28;5051819;28;20022;-82
2023/07/15 06:37:00;;;;;;;9.07;3.08;;;;;;;20.24;76.58;100315.28;5060509;28;20032;-82
2023/07/15 06:39:25;;;;;;;8.48;3.20;;;;;;;20.32;76.13;100306.13;5065303;28;20032;-78
2023/07/15 06:41:51;;;;;;;13.77;3.53;;;;;;;20.38;73.43;100308.09;5051595;28;20032;-83
2023/07/15 06:44:16;;;;;;;8.90;3.40;;;;;;;20.44;75.35;100321.00;5049731;28;20473;-80
2023/07/15 06:46:42;;;;;;;10.32;3.17;;;;;;;20.53;77.56;100313.56;5053386;28;20090;-82
2023/07/15 06:49:07;;;;;;;9.75;3.67;;;;;;;20.55;76.68;100301.38;5017055;28;20123;-81
2023/07/15 06:51:33;;;;;;;7.72;3.17;;;;;;;20.57;74.17;100304.78;5037084;28;20469;-82
2023/07/15 06:53:58;;;;;;;10.48;3.42;;;;;;;20.64;77.00;100301.28;5033394;28;20028;-80
2023/07/15 06:56:23;;;;;;;13.48;3.80;;;;;;;20.73;76.82;100291.97;5047881;28;20120;-81
2023/07/15 06:58:49;;;;;;;13.55;3.47;;;;;;;20.72;74.59;100296.59;5054546;28;20024;-80
2023/07/15 07:01:14;;;;;;;11.95;3.65;;;;;;;20.80;76.49;100295.63;5056651;28;20033;-80
2023/07/15 07:03:39;;;;;;;9.15;3.20;;;;;;;20.88;76.39;100302.84;5045633;28;20082;-81
2023/07/15 07:06:08;;;;;;;7.25;2.50;;;;;;;20.93;77.56;100301.22;5063266;28;20040;-82
2023/07/15 07:08:33;;;;;;;7.50;3.15;;;;;;;20.96;76.75;100297.25;5056780;28;20141;-81
2023/07/15 07:11:02;;;;;;;6.80;2.92;;;;;;;21.09;76.08;100302.03;5057978;28;20103;-77
2023/07/15 07:13:27;;;;;;;8.43;2.95;;;;;;;21.15;74.23;100298.50;5047526;28;20035;-81
2023/07/15 07:15:57;;;;;;;8.20;3.17;;;;;;;21.18;74.34;100310.94;5027289;28;20392;-81
2023/07/15 07:18:22;;;;;;;;;;;;;;;21.23;75.11;100306.56;5044771;28;20678;-82
2023/07/15 07:20:47;;;;;;;7.28;3.10;;;;;;;21.28;73.93;100300.50;5049082;28;20015;-81
2023/07/15 07:23:13;;;;;;;11.25;3.40;;;;;;;21.32;74.43;100314.63;5059704;28;20127;-82
2023/07/15 07:25:41;;;;;;;7.25;2.90;;;;;;;21.36;74.16;100321.41;5039151;28;20069;-82
2023/07/15 07:28:07;;;;;;;8.13;3.22;;;;;;;21.44;74.88;100326.72;5062360;28;20029;-81
2023/07/15 07:30:32;;;;;;;6.38;3.22;;;;;;;21.52;72.09;100317.56;5060072;28;20035;-81
2023/07/15 07:32:57;;;;;;;10.48;3.17;;;;;;;21.56;72.02;100310.66;5051009;28;20181;-82
2023/07/15 07:35:23;;;;;;;8.32;3.00;;;;;;;21.63;72.15;100312.41;5053659;28;20025;-81
2023/07/15 07:37:49;;;;;;;12.40;2.90;;;;;;;21.71;72.03;100314.13;5049830;28;20033;-81
2023/07/15 07:40:14;;;;;;;8.20;2.72;;;;;;;21.77;73.50;100315.22;5053372;28;20023;-82
2023/07/15 07:42:40;;;;;;;6.53;2.58;;;;;;;21.79;74.02;100314.00;5061143;28;20158;-80
2023/07/15 07:45:15;;;;;;;9.57;3.40;;;;;;;21.88;74.59;100314.69;5061798;28;20033;-78
2023/07/15 07:47:40;;;;;;;9.85;3.10;;;;;;;21.95;72.34;100312.84;5060502;28;20442;-79
2023/07/15 07:50:06;;;;;;;7.85;2.65;;;;;;;21.99;73.46;100319.63;5046838;28;20234;-78
2023/07/15 07:52:34;;;;;;;6.18;2.63;;;;;;;22.04;73.48;100309.97;5045205;28;20539;-83
2023/07/15 07:55:00;;;;;;;8.98;3.10;;;;;;;22.08;74.61;100319.44;5063452;28;20387;-78
2023/07/15 07:57:26;;;;;;;8.00;3.10;;;;;;;22.08;74.32;100313.97;5051145;28;20034;-78
2023/07/15 07:59:52;;;;;;;6.53;2.88;;;;;;;22.11;74.55;100305.34;5056368;28;20047;-76
2023/07/15 08:02:17;;;;;;;6.82;2.95;;;;;;;22.15;76.84;100304.75;5050128;28;20477;-79
2023/07/15 08:04:42;;;;;;;8.27;3.05;;;;;;;22.14;74.37;100322.22;5063352;28;20017;-77
2023/07/15 08:07:07;;;;;;;7.40;2.90;;;;;;;22.18;75.28;100319.91;5049237;28;20053;-78
2023/07/15 08:09:33;;;;;;;7.93;2.95;;;;;;;22.20;74.07;100322.44;5065052;28;20476;-82
2023/07/15 08:11:59;;;;;;;7.03;2.85;;;;;;;22.22;74.67;100318.47;5059687;28;20077;-82
2023/07/15 08:14:24;;;;;;;13.13;2.97;;;;;;;22.27;75.82;100321.47;5057460;28;20029;-82
2023/07/15 08:16:50;;;;;;;10.52;2.97;;;;;;;22.27;74.94;100315.97;5055646;28;20358;-81
2023/07/15 08:19:16;;;;;;;7.55;2.83;;;;;;;22.33;75.74;100320.66;5044849;28;20120;-80
2023/07/15 08:21:42;;;;;;;8.10;2.65;;;;;;;22.36;75.46;100326.78;5054611;28;20026;-81
2023/07/15 08:24:07;;;;;;;9.02;2.50;;;;;;;;;;5052037;28;20046;-82
2023/07/15 08:26:33;;;;;;;8.68;2.67;;;;;;;22.42;74.79;100335.03;5039514;28;20031;-81
2023/07/15 08:28:58;;;;;;;5.47;2.47;;;;;;;22.43;73.47;100341.34;5043171;28;20047;-81
2023/07/15 08:31:24;;;;;;;11.63;3.30;;;;;;;22.44;74.30;100332.94;5056475;28;20158;-80
2023/07/15 08:33:50;;;;;;;11.75;3.05;;;;;;;22.50;73.61;100336.75;5059427;28;20021;-80
2023/07/15 08:36:16;;;;;;;11.82;2.90;;;;;;;22.51;73.75;100331.06;5053419;28;20060;-81
2023/07/15 08:38:41;;;;;;;6.30;2.88;;;;;;;22.52;73.09;100335.50;5050452;28;20056;-82
2023/07/15 08:41:07;;;;;;;7.70;3.05;;;;;;;22.56;74.88;100333.19;5037996;28;20120;-80
2023/07/15 08:43:32;;;;;;;11.75;3.42;;;;;;;22.60;74.30;100342.69;5058396;28;20120;-82
2023/07/15 08:46:07;;;;;;;9.90;3.42;;;;;;;22.67;72.74;100346.31;5043748;28;20044;-81
2023/07/15 08:48:34;;;;;;;8.80;3.35;;;;;;;22.71;71.37;100357.72;5050057;28;20022;-79
2023/07/15 08:51:00;;;;;;;8.63;3.08;;;;;;;22.72;71.50;100351.16;5051647;28;20027;-82
2023/07/15 08:53:27;;;;;;;7.47;2.88;;;;;;;22.69;72.06;100357.91;5050834;28;20033;-79
2023/07/15 08:55:56;;;;;;;8.10;2.90;;;;;;;22.66;72.68;100365.69;5040562;28;20513;-79
2023/07/15 08:58:22;;;;;;;;;;;;;;;22.67;71.68;100370.97;5031188;28;20033;-79
2023/07/15 09:00:49;;;;;;;8.85;2.92;;;;;;;22.61;71.10;100376.44;5055555;28;20356;-78
2023/07/15 09:03:14;;;;;;;15.18;3.53;;;;;;;22.57;70.40;100380.63;5041703;28;20033;-78
2023/07/15 09:05:40;;;;;;;15.90;3.78;;;;;;;22.51;70.59;100374.06;5061677;28;20082;-78
2023/07/15 09:08:11;;;;;;;8.70;2.97;;;;;;;22.48;70.97;100382.69;5060228;28;20056;-78
2023/07/15 09:10:37;;;;;;;11.43;3.05;;;;;;;22.43;70.69;100372.34;5049044;28;20048;-79
2023/07/15 09:13:02;;;;;;;20.45;3.65;;;;;;;;;;5046284;28;20044;-79
2023/07/15 09:15:28;;;;;;;9.50;3.13;;;;;;;22.34;68.31;100374.38;5056231;28;20036;-78
2023/07/15 09:17:55;;;;;;;12.32;3.88;;;;;;;22.34;68.18;100377.13;5044796;28;20048;-78
2023/07/15 09:20:22;;;;;;;16.02;3.95;;;;;;;22.37;69.56;100384.06;5032274;28;20420;-78
2023/07/15 09:22:52;;;;;;;9.32;2.90;;;;;;;22.39;68.38;100373.78;5055365;28;20032;-79
2023/07/15 09:25:20;;;;;;;10.05;3.58;;;;;;;22.48;67.63;100385.41;5055442;28;20044;-79
2023/07/15 09:27:45;;;;;;;8.90;3.40;;;;;;;22.53;69.96;100385.63;5055555;28;20350;-79
2023/07/15 09:30:11;;;;;;;10.27;3.10;;;;;;;22.59;69.80;100384.84;5060915;28;20089;-78
2023/07/15 09:32:36;;;;;;;10.85;3.08;;;;;;;22.63;68.88;100380.63;5061602;28;20032;-78
2023/07/15 09:35:03;;;;;;;8.98;3.28;;;;;;;22.65;67.83;100389.50;5059498;28;20033;-78
2023/07/15 09:37:30;;;;;;;12.20;3.45;;;;;;;22.63;67.78;100388.00;5048432;28;20029;-78
2023/07/15 09:40:07;;;;;;;9.63;3.20;;;;;;;22.58;68.66;100391.38;5060631;28;20028;-79
2023/07/15 09:42:51;;;;;;;10.32;3.28;;;;;;;22.56;69.02;100392.59;5059752;28;20107;-78
2023/07/15 09:45:46;;;;;;;11.02;3.47;;;;;;;22.52;69.59;100400.41;5062594;28;20545;-78
2023/07/15 09:48:16;;;;;;;9.07;3.45;;;;;;;22.50;70.02;100400.59;5059919;28;20041;-78
2023/07/15 09:50:42;;;;;;;10.35;3.33;;;;;;;22.49;70.08;100411.72;5056963;28;20406;-78
2023/07/15 09:53:09;;;;;;;11.13;3.22;;;;;;;22.47;69.71;100425.63;5059927;28;20029;-79
2023/07/15 09:55:39;;;;;;;8.77;3.20;;;;;;;22.47;69.94;100428.34;5061126;28;20020;-79
2023/07/15 09:58:24;;;;;;;7.47;3.00;;;;;;;22.45;70.22;100438.69;5062595;28;20447;-78
2023/07/15 10:00:52;;;;;;;11.13;3.25;;;;;;;22.40;72.91;100424.75;5053487;28;20035;-79
2023/07/15 10:03:25;;;;;;;7.50;2.97;;;;;;;22.36;71.36;100428.06;5052128;28;20145;-79
2023/07/15 10:05:52;;;;;;;7.30;3.42;;;;;;;22.31;72.40;100420.44;5041523;28;20112;-77
2023/07/15 10:08:17;;;;;;;10.48;3.65;;;;;;;22.27;74.36;100420.00;5066081;28;20096;-78
2023/07/15 10:10:43;;;;;;;11.48;3.17;;;;;;;22.23;73.60;100407.75;5052725;28;20075;-77
2023/07/15 10:13:09;;;;;;;11.13;3.47;;;;;;;22.20;74.35;100412.78;5038462;28;20108;-78
2023/07/15 10:15:35;;;;;;;8.73;3.20;;;;;;;22.17;76.68;100405.84;5040633;28;20028;-79
2023/07/15 10:18:16;;;;;;;9.15;3.30;;;;;;;22.17;76.70;100397.63;5039717;28;20035;-78
2023/07/15 10:21:03;;;;;;;13.80;4.07;;;;;;;22.11;78.02;100385.56;5039796;28;20113;-79
2023/07/15 10:23:31;;;;;;;8.13;3.20;;;;;;;22.04;79.11;100389.31;5048132;28;20055;-78
2023/07/15 10:26:00;;;;;;;9.73;3.42;;;;;;;22.02;80.44;100380.44;5055828;28;20208;-78
2023/07/15 10:28:30;;;;;;;10.13;3.53;;;;;;;21.97;83.51;100390.09;5053107;28;20447;-77
2023/07/15 10:31:12;;;;;;;10.98;3.80;;;;;;;21.98;83.85;100388.22;5059124;28;20027;-81
2023/07/15 10:33:59;;;;;;;7.50;3.20;;;;;;;21.99;84.05;100393.50;5052439;28;20382;-78
2023/07/15 10:36:45;;;;;;;8.23;3.13;;;;;;;22.00;82.61;100383.38;5041855;28;20485;-78
2023/07/15 10:39:18;;;;;;;9.98;3.42;;;;;;;22.02;86.52;100388.66;5048349;28;20036;-78
2023/07/15 10:41:48;;;;;;;8.75;3.00;;;;;;;22.06;86.81;100384.47;5033176;28;20108;-77
2023/07/15 10:44:26;;;;;;;9.02;3.28;;;;;;;22.11;86.05;100381.97;5058004;28;20037;-79
2023/07/15 10:47:01;;;;;;;12.98;3.95;;;;;;;22.13;88.46;100396.31;5057261;28;20052;-78
2023/07/15 10:49:26;;;;;;;10.57;3.80;;;;;;;22.13;85.79;100390.84;5038481;28;20108;-78
2023/07/15 10:51:54;;;;;;;8.07;3.17;;;;;;;22.13;85.15;100382.63;5049050;28;20112;-79
2023/07/15 10:54:25;;;;;;;8.20;3.35;;;;;;;22.17;84.38;100392.16;5049954;28;20455;-78
2023/07/15 10:56:50;;;;;;;12.07;3.03;;;;;;;22.26;85.51;100396.41;5053762;28;20026;-79
2023/07/15 10:59:15;;;;;;;11.50;3.45;;;;;;;22.33;85.29;100401.97;5040418;28;20110;-78
2023/07/15 11:01:44;;;;;;;14.02;3.85;;;;;;;22.34;83.03;100396.28;5043555;28;20075;-79
2023/07/15 11:04:10;;;;;;;12.07;3.70;;;;;;;22.32;82.60;100395.63;5044175;28;20041;-79
2023/07/15 11:06:36;;;;;;;11.23;3.55;;;;;;;22.28;81.63;100396.19;5041505;28;20028;-80
2023/07/15 11:09:18;;;;;;;10.15;3.60;;;;;;;22.30;80.18;100403.19;5042985;28;20415;-80
2023/07/15 11:11:44;;;;;;;9.30;3.13;;;;;;;22.37;81.75;100394.19;5052422;28;20419;-75
2023/07/15 11:14:29;;;;;;;13.70;4.28;;;;;;;22.52;82.71;100389.44;5060381;28;20490;-75
2023/07/15 11:17:01;;;;;;;11.35;2.97;;;;;;;22.57;79.30;100389.66;5050915;28;20481;-79
2023/07/15 11:19:28;;;;;;;10.18;3.20;;;;;;;22.63;77.61;100390.75;5057172;28;20415;-76
2023/07/15 11:21:58;;;;;;;9.15;3.35;;;;;;;22.63;73.98;100386.09;5036059;28;20016;-76